createdAt,value
2023-03-26T00:02:06.892Z,99745.13
2023-03-26T00:04:35.067Z,99743.41
2023-03-26T00:07:03.300Z,99740.94
2023-03-26T00:09:31.490Z,99750.94
2023-03-26T00:11:59.665Z,99750.84
2023-03-26T00:14:29.271Z,99745.47
2023-03-26T00:16:57.527Z,99754.28
2023-03-26T00:19:27.956Z,99761.59
2023-03-26T00:21:57.740Z,99769.53
2023-03-26T00:24:29.971Z,99774.03
2023-03-26T00:26:59.801Z,99776.16
2023-03-26T00:29:28.849Z,99774.53
2023-03-26T00:31:57.115Z,99778.97
2023-03-26T00:34:26.955Z,99777.88
2023-03-26T00:36:55.215Z,99778.56
2023-03-26T00:39:24.511Z,99781.25
2023-03-26T00:41:54.550Z,99782.84
2023-03-26T00:44:23.438Z,99796.50
2023-03-26T00:46:51.688Z,99797.47
2023-03-26T00:49:19.884Z,99790.25
2023-03-26T00:51:49.444Z,99797.53
2023-03-26T00:54:17.639Z,99804.75
2023-03-26T00:56:45.860Z,99803.13
2023-03-26T00:59:14.043Z,99810.22
2023-03-26T01:01:42.381Z,99811.09
2023-03-26T01:04:31.094Z,99811.19
2023-03-26T01:07:03.950Z,99815.69
2023-03-26T01:09:36.731Z,99823.84
2023-03-26T01:12:07.988Z,99827.31
2023-03-26T01:14:36.267Z,99830.00
2023-03-26T01:17:07.206Z,99825.38
2023-03-26T01:19:45.004Z,99838.03
2023-03-26T01:22:18.634Z,99838.13
2023-03-26T01:24:53.747Z,99838.22
2023-03-26T01:27:28.302Z,99835.66
2023-03-26T01:29:59.879Z,99837.38
2023-03-26T01:32:40.052Z,99842.84
2023-03-26T01:35:29.214Z,99849.31
2023-03-26T01:38:10.542Z,99847.88
2023-03-26T01:40:43.680Z,99842.63
2023-03-26T01:43:14.741Z,99848.19
2023-03-26T01:45:44.003Z,99851.09
2023-03-26T01:48:12.940Z,99846.78
2023-03-26T01:50:41.318Z,99848.50
2023-03-26T01:53:12.701Z,99853.84
2023-03-26T01:55:49.838Z,99857.41
2023-03-26T01:58:24.842Z,99862.69
2023-03-26T02:00:56.829Z,99852.03
2023-03-26T02:03:29.210Z,99863.44
2023-03-26T02:06:05.196Z,99863.44
2023-03-26T02:08:36.381Z,99859.22
2023-03-26T02:11:11.414Z,99872.13
2023-03-26T02:13:40.432Z,99865.25
2023-03-26T02:16:11.711Z,99863.63
2023-03-26T02:18:41.928Z,99870.03
2023-03-26T02:21:12.340Z,99863.69
2023-03-26T02:23:42.202Z,99874.53
2023-03-26T02:26:12.395Z,99877.22
2023-03-26T02:28:40.779Z,99870.34
2023-03-26T02:31:10.915Z,99875.94
2023-03-26T02:33:39.642Z,99876.22
2023-03-26T02:36:08.772Z,99874.72
2023-03-26T02:38:37.002Z,99870.31
2023-03-26T02:41:05.983Z,99882.00
2023-03-26T02:43:35.731Z,99882.00
2023-03-26T02:46:04.000Z,99877.59
2023-03-26T02:48:34.715Z,99882.22
2023-03-26T02:51:02.979Z,99884.03
2023-03-26T02:53:31.420Z,99877.03
2023-03-26T02:56:00.798Z,99874.44
2023-03-26T02:58:30.689Z,99877.34
2023-03-26T03:01:03.243Z,99878.41
2023-03-26T03:03:31.645Z,99877.66
2023-03-26T03:05:59.873Z,99877.66
2023-03-26T03:08:29.344Z,99884.94
2023-03-26T03:10:58.979Z,99878.03
2023-03-26T03:13:27.138Z,99882.44
2023-03-26T03:15:56.276Z,99885.03
2023-03-26T03:18:26.199Z,99892.31
2023-03-26T03:20:54.963Z,99884.56
2023-03-26T03:23:23.193Z,99891.38
2023-03-26T03:25:52.700Z,99900.13
2023-03-26T03:28:21.550Z,99900.53
2023-03-26T03:30:53.195Z,99907.97
2023-03-26T03:33:21.636Z,99902.72
2023-03-26T03:35:51.672Z,99900.13
2023-03-26T03:38:20.266Z,99892.28
2023-03-26T03:40:48.512Z,99900.44
2023-03-26T03:43:16.728Z,99906.00
2023-03-26T03:45:44.913Z,99902.47
2023-03-26T03:48:13.114Z,99901.66
2023-03-26T03:50:41.949Z,99901.00
2023-03-26T03:53:16.197Z,99910.31
2023-03-26T03:55:53.438Z,99914.09
2023-03-26T03:58:22.884Z,99911.63
2023-03-26T04:00:51.466Z,99919.09
2023-03-26T04:03:33.746Z,99909.34
2023-03-26T04:06:06.887Z,99912.97
2023-03-26T04:08:36.614Z,99916.69
2023-03-26T04:11:05.007Z,99925.00
2023-03-26T04:13:33.202Z,99926.44
2023-03-26T04:16:01.688Z,99925.97
2023-03-26T04:18:30.372Z,99930.81
2023-03-26T04:21:03.350Z,99929.28
2023-03-26T04:23:32.051Z,99925.84
2023-03-26T04:26:04.618Z,99928.50
2023-03-26T04:28:35.816Z,99920.47
2023-03-26T04:31:04.948Z,99923.81
2023-03-26T04:33:34.760Z,99920.00
2023-03-26T04:36:03.641Z,99920.78
2023-03-26T04:38:33.667Z,99927.97
2023-03-26T04:41:04.635Z,99926.16
2023-03-26T04:43:35.563Z,99921.75
2023-03-26T04:46:04.884Z,99919.13
2023-03-26T04:48:33.098Z,99923.63
2023-03-26T04:51:01.760Z,99924.88
2023-03-26T04:53:29.988Z,99916.53
2023-03-26T04:56:02.144Z,99930.63
2023-03-26T04:58:33.187Z,99928.50
2023-03-26T05:01:10.243Z,99925.63
2023-03-26T05:03:41.307Z,99927.00
2023-03-26T05:06:12.170Z,99932.69
2023-03-26T05:08:41.827Z,99926.03
2023-03-26T05:11:11.688Z,99935.28
2023-03-26T05:13:42.896Z,99936.69
2023-03-26T05:16:11.592Z,99933.06
2023-03-26T05:18:40.084Z,99935.44
2023-03-26T05:21:08.454Z,99929.16
2023-03-26T05:23:36.659Z,99937.00
2023-03-26T05:26:05.279Z,99934.25
2023-03-26T05:28:33.482Z,99942.28
2023-03-26T05:31:03.831Z,99939.41
2023-03-26T05:33:32.199Z,99939.34
2023-03-26T05:36:02.251Z,99941.16
2023-03-26T05:38:31.048Z,99952.72
2023-03-26T05:41:00.758Z,99952.88
2023-03-26T05:43:29.367Z,99964.09
2023-03-26T05:45:57.898Z,99952.63
2023-03-26T05:48:28.374Z,99951.84
2023-03-26T05:50:58.123Z,99958.06
2023-03-26T05:53:27.893Z,99959.06
2023-03-26T05:55:58.210Z,99957.03
2023-03-26T05:58:27.225Z,99963.06
2023-03-26T06:00:59.421Z,99958.38
2023-03-26T06:03:29.556Z,99955.66
2023-03-26T06:05:57.851Z,99954.94
2023-03-26T06:08:26.183Z,99966.41
2023-03-26T06:10:59.995Z,99963.06
2023-03-26T06:13:28.593Z,99974.78
2023-03-26T06:15:57.916Z,99971.09
2023-03-26T06:18:26.491Z,99973.56
2023-03-26T06:20:56.351Z,99972.56
2023-03-26T06:23:24.748Z,99964.69
2023-03-26T06:25:52.866Z,99968.06
2023-03-26T06:28:21.083Z,99967.56
2023-03-26T06:30:50.259Z,99969.81
2023-03-26T06:33:18.661Z,99977.56
2023-03-26T06:35:47.039Z,99975.94
2023-03-26T06:38:16.503Z,99974.13
2023-03-26T06:40:44.689Z,99983.63
2023-03-26T06:43:12.964Z,99980.94
2023-03-26T06:45:41.058Z,99975.66
2023-03-26T06:48:09.801Z,99984.63
2023-03-26T06:50:37.893Z,99993.63
2023-03-26T06:53:06.105Z,99991.81
2023-03-26T06:55:35.668Z,99995.53
2023-03-26T06:58:03.901Z,99992.00
2023-03-26T07:00:32.149Z,100000.88
2023-03-26T07:03:00.272Z,99998.00
2023-03-26T07:05:28.353Z,99998.28
2023-03-26T07:07:56.534Z,99999.28
2023-03-26T07:10:24.681Z,99994.34
2023-03-26T07:12:54.400Z,99991.25
2023-03-26T07:15:22.614Z,99994.06
2023-03-26T07:17:50.858Z,99986.91
2023-03-26T07:20:19.137Z,99995.47
2023-03-26T07:22:47.898Z,100000.00
2023-03-26T07:25:18.708Z,99990.50
2023-03-26T07:27:55.071Z,99993.19
2023-03-26T07:30:30.259Z,99997.06
2023-03-26T07:33:02.231Z,99996.34
2023-03-26T07:35:33.432Z,99998.09
2023-03-26T07:38:18.829Z,99997.28
2023-03-26T07:40:54.302Z,99987.03
2023-03-26T07:43:34.881Z,99997.88
2023-03-26T07:46:05.598Z,99992.84
2023-03-26T07:48:40.992Z,99997.03
2023-03-26T07:51:10.539Z,99996.72
2023-03-26T07:53:39.060Z,99997.13
2023-03-26T07:56:13.626Z,100008.03
2023-03-26T07:58:58.012Z,100004.06
2023-03-26T08:01:36.829Z,100010.78
2023-03-26T08:04:25.631Z,100009.59
2023-03-26T08:06:59.372Z,100014.56
2023-03-26T08:09:31.898Z,100002.31
2023-03-26T08:12:07.520Z,99997.38
2023-03-26T08:14:45.394Z,99995.56
2023-03-26T08:17:17.296Z,100002.44
2023-03-26T08:19:52.320Z,100013.03
2023-03-26T08:22:26.452Z,100005.97
2023-03-26T08:25:17.712Z,100006.53
2023-03-26T08:27:52.991Z,100008.44
2023-03-26T08:30:23.469Z,100017.03
2023-03-26T08:32:56.750Z,100006.44
2023-03-26T08:35:25.410Z,100010.44
2023-03-26T08:37:53.736Z,100002.28
2023-03-26T08:40:36.455Z,100013.78
2023-03-26T08:43:20.775Z,100015.38
2023-03-26T08:46:10.384Z,100020.56
2023-03-26T08:49:03.796Z,100026.63
2023-03-26T08:52:01.922Z,100035.81
2023-03-26T08:55:06.202Z,100028.97
2023-03-26T08:58:10.732Z,100022.47
2023-03-26T09:00:43.848Z,100018.81
2023-03-26T09:03:36.260Z,100027.19
2023-03-26T09:06:42.980Z,100025.72
2023-03-26T09:09:40.356Z,100021.19
2023-03-26T09:12:39.371Z,100018.88
2023-03-26T09:15:46.953Z,100015.69
2023-03-26T09:18:49.764Z,100004.19
2023-03-26T09:21:32.573Z,100012.22
2023-03-26T09:24:44.876Z,100008.03
2023-03-26T09:27:27.406Z,100006.88
2023-03-26T09:30:34.035Z,99988.38
2023-03-26T09:33:24.762Z,99990.44
2023-03-26T09:36:04.832Z,100005.91
2023-03-26T09:38:42.926Z,99995.44
2023-03-26T09:41:17.402Z,100000.56
2023-03-26T09:44:23.164Z,100004.00
2023-03-26T09:47:01.197Z,99998.69
2023-03-26T09:49:49.197Z,100006.31
2023-03-26T09:52:53.425Z,100011.31
2023-03-26T09:55:30.569Z,100008.41
2023-03-26T09:58:24.497Z,100002.47
2023-03-26T10:01:05.542Z,100005.28
2023-03-26T10:03:47.013Z,100012.03
2023-03-26T10:06:28.029Z,100005.91
2023-03-26T10:09:11.848Z,100001.75
2023-03-26T10:11:58.754Z,100012.56
2023-03-26T10:14:33.802Z,100011.63
2023-03-26T10:17:11.317Z,100012.53
2023-03-26T10:19:52.766Z,100015.94
2023-03-26T10:22:30.542Z,100018.59
2023-03-26T10:25:16.584Z,100018.31
2023-03-26T10:27:52.452Z,100016.44
2023-03-26T10:30:35.156Z,100016.41
2023-03-26T10:33:14.119Z,100012.94
2023-03-26T10:35:51.967Z,100017.00
2023-03-26T10:38:25.567Z,100012.47
2023-03-26T10:41:00.860Z,100012.22
2023-03-26T10:43:46.409Z,100014.56
2023-03-26T10:46:31.022Z,100016.28
2023-03-26T10:49:28.568Z,100009.03
2023-03-26T10:51:59.368Z,100003.38
2023-03-26T10:54:36.616Z,100018.59
2023-03-26T10:57:08.964Z,100009.09
2023-03-26T10:59:37.106Z,100026.09
2023-03-26T11:02:29.418Z,100011.22
2023-03-26T11:05:15.645Z,100021.44
2023-03-26T11:07:51.884Z,100012.56
2023-03-26T11:10:26.143Z,100002.25
2023-03-26T11:12:58.063Z,100003.81
2023-03-26T11:15:29.404Z,100007.94
2023-03-26T11:18:07.623Z,100013.13
2023-03-26T11:20:39.884Z,100012.25
2023-03-26T11:23:22.224Z,100022.25
2023-03-26T11:26:06.658Z,100024.47
2023-03-26T11:29:03.476Z,100021.91
2023-03-26T11:31:56.779Z,100028.31
2023-03-26T11:34:29.291Z,100038.97
2023-03-26T11:36:58.484Z,100038.16
2023-03-26T11:39:28.541Z,100037.84
2023-03-26T11:42:05.063Z,100041.16
2023-03-26T11:44:35.716Z,100039.84
2023-03-26T11:47:10.105Z,100051.00
2023-03-26T11:49:40.431Z,100041.44
2023-03-26T11:52:12.207Z,100043.41
2023-03-26T11:54:40.288Z,100033.19
2023-03-26T11:57:12.186Z,100041.81
2023-03-26T11:59:55.437Z,100036.59
2023-03-26T12:02:29.941Z,100044.72
2023-03-26T12:05:14.712Z,100038.03
2023-03-26T12:07:48.310Z,100042.88
2023-03-26T12:10:34.799Z,100039.38
2023-03-26T12:13:04.316Z,100042.91
2023-03-26T12:15:32.696Z,100040.31
2023-03-26T12:18:18.632Z,100035.53
2023-03-26T12:20:49.490Z,100030.91
2023-03-26T12:23:35.995Z,100038.81
2023-03-26T12:26:13.179Z,100041.59
2023-03-26T12:28:48.183Z,100049.19
2023-03-26T12:31:18.351Z,100041.06
2023-03-26T12:33:52.848Z,100049.00
2023-03-26T12:36:26.659Z,100041.75
2023-03-26T12:39:16.279Z,100038.75
2023-03-26T12:43:19.755Z,100033.75
2023-03-26T12:44:54.824Z,100041.91
2023-03-26T12:48:00.299Z,100042.06
2023-03-26T12:50:14.968Z,100046.88
2023-03-26T12:53:03.444Z,100043.03
2023-03-26T12:55:42.270Z,100038.59
2023-03-26T12:58:33.625Z,100040.19
2023-03-26T13:01:07.631Z,100039.47
2023-03-26T13:03:44.742Z,100038.28
2023-03-26T13:06:30.779Z,100037.22
2023-03-26T13:09:26.097Z,100037.47
2023-03-26T13:12:03.751Z,100038.34
2023-03-26T13:14:39.785Z,100043.41
2023-03-26T13:17:16.072Z,100038.97
2023-03-26T13:19:47.718Z,100035.22
2023-03-26T13:22:24.569Z,100044.25
2023-03-26T13:24:58.313Z,100044.00
2023-03-26T13:27:38.215Z,100026.28
2023-03-26T13:30:16.038Z,100036.06
2023-03-26T13:32:57.269Z,100031.44
2023-03-26T13:35:31.155Z,100024.03
2023-03-26T13:38:04.512Z,100034.88
2023-03-26T13:40:43.104Z,100041.34
2023-03-26T13:43:25.699Z,100035.56
2023-03-26T13:46:01.556Z,100036.91
2023-03-26T13:48:33.042Z,100044.41
2023-03-26T13:51:06.732Z,100037.03
2023-03-26T13:53:41.961Z,100033.41
2023-03-26T13:56:15.801Z,100033.72
2023-03-26T13:58:48.810Z,100026.09
2023-03-26T14:01:20.719Z,100024.38
2023-03-26T14:03:54.858Z,100042.41
2023-03-26T14:06:33.976Z,100037.91
2023-03-26T14:09:05.071Z,100036.03
2023-03-26T14:11:44.545Z,100029.19
2023-03-26T14:14:15.917Z,100036.25
2023-03-26T14:16:47.957Z,100032.56
2023-03-26T14:19:41.165Z,100035.91
2023-03-26T14:22:18.895Z,100041.88
2023-03-26T14:25:15.049Z,100042.16
2023-03-26T14:27:57.880Z,100039.81
2023-03-26T14:30:54.367Z,100047.91
2023-03-26T14:33:42.987Z,100046.94
2023-03-26T14:36:17.243Z,100050.28
2023-03-26T14:39:05.710Z,100043.78
2023-03-26T14:41:41.603Z,100042.00
2023-03-26T14:44:48.026Z,100040.06
2023-03-26T14:47:19.644Z,100039.78
2023-03-26T14:50:31.502Z,100040.44
2023-03-26T14:53:01.887Z,100049.78
2023-03-26T14:55:52.114Z,100049.84
2023-03-26T14:58:53.559Z,100048.06
2023-03-26T15:01:29.181Z,100054.72
2023-03-26T15:04:34.537Z,100062.16
2023-03-26T15:07:25.613Z,100058.72
2023-03-26T15:10:23.934Z,100055.41
2023-03-26T15:13:31.211Z,100063.75
2023-03-26T15:16:17.913Z,100064.34
2023-03-26T15:19:16.786Z,100065.25
2023-03-26T15:22:20.430Z,100070.00
2023-03-26T15:25:21.182Z,100063.34
2023-03-26T15:28:10.277Z,100064.47
2023-03-26T15:31:22.925Z,100078.38
2023-03-26T15:34:23.397Z,100075.44
2023-03-26T15:37:30.441Z,100072.00
2023-03-26T15:40:26.050Z,100083.59
2023-03-26T15:43:01.451Z,100083.19
2023-03-26T15:45:40.831Z,100086.22
2023-03-26T15:48:34.238Z,100087.41
2023-03-26T15:51:30.059Z,100091.63
2023-03-26T15:54:01.299Z,100086.66
2023-03-26T15:56:49.156Z,100092.47
2023-03-26T15:59:30.886Z,100095.88
2023-03-26T16:02:06.678Z,100100.47
2023-03-26T16:04:50.394Z,100102.53
2023-03-26T16:07:50.430Z,100097.03
2023-03-26T16:10:27.980Z,100106.72
2023-03-26T16:13:12.502Z,100108.69
2023-03-26T16:15:41.327Z,100111.47
2023-03-26T16:18:26.634Z,100119.34
2023-03-26T16:20:55.897Z,100114.06
2023-03-26T16:23:31.296Z,100126.66
2023-03-26T16:26:12.249Z,100121.72
2023-03-26T16:29:07.828Z,100126.78
2023-03-26T16:31:39.466Z,100134.50
2023-03-26T16:34:38.708Z,100136.03
2023-03-26T16:37:27.650Z,100142.88
2023-03-26T16:40:17.771Z,100143.72
2023-03-26T16:42:49.520Z,100150.66
2023-03-26T16:45:26.413Z,100149.47
2023-03-26T16:48:00.988Z,100160.63
2023-03-26T16:50:41.335Z,100164.59
2023-03-26T16:53:22.120Z,100164.34
2023-03-26T16:55:57.792Z,100164.81
2023-03-26T16:58:31.797Z,100170.81
2023-03-26T17:01:08.762Z,100180.34
2023-03-26T17:03:52.391Z,100177.25
2023-03-26T17:07:01.631Z,100186.59
2023-03-26T17:09:37.749Z,100191.41
2023-03-26T17:12:15.655Z,100192.53
2023-03-26T17:14:56.620Z,100191.94
2023-03-26T17:17:39.543Z,100205.56
2023-03-26T17:20:18.269Z,100210.09
2023-03-26T17:22:48.659Z,100214.56
2023-03-26T17:25:25.894Z,100217.66
2023-03-26T17:28:08.598Z,100215.06
2023-03-26T17:31:01.974Z,100217.06
2023-03-26T17:33:34.674Z,100229.72
2023-03-26T17:36:29.161Z,100230.00
2023-03-26T17:39:03.523Z,100238.34
2023-03-26T17:41:54.411Z,100234.09
2023-03-26T17:44:43.371Z,100241.28
2023-03-26T17:47:43.291Z,100244.53
2023-03-26T17:50:15.678Z,100251.97
2023-03-26T17:52:56.402Z,100255.72
2023-03-26T17:55:30.492Z,100253.38
2023-03-26T17:58:00.453Z,100258.16
2023-03-26T18:00:33.868Z,100263.53
2023-03-26T18:03:03.872Z,100265.25
2023-03-26T18:05:32.187Z,100269.19
2023-03-26T18:08:38.792Z,100260.34
2023-03-26T18:11:37.358Z,100264.91
2023-03-26T18:14:47.195Z,100276.69
2023-03-26T18:17:16.996Z,100277.06
2023-03-26T18:19:49.779Z,100280.09
2023-03-26T18:22:21.102Z,100283.22
2023-03-26T18:24:49.769Z,100294.38
2023-03-26T18:27:20.113Z,100306.38
2023-03-26T18:30:01.841Z,100312.09
2023-03-26T18:32:33.778Z,100312.38
2023-03-26T18:35:14.300Z,100306.75
2023-03-26T18:37:44.281Z,100319.50
2023-03-26T18:40:16.746Z,100317.09
2023-03-26T18:42:46.960Z,100334.38
2023-03-26T18:45:24.622Z,100320.53
2023-03-26T18:47:57.261Z,100338.91
2023-03-26T18:50:28.585Z,100336.88
2023-03-26T18:53:00.014Z,100343.66
2023-03-26T18:55:29.737Z,100347.63
2023-03-26T18:57:58.484Z,100354.47
2023-03-26T19:00:30.373Z,100343.22
2023-03-26T19:03:05.870Z,100350.69
2023-03-26T19:05:34.679Z,100357.47
2023-03-26T19:08:04.883Z,100365.03
2023-03-26T19:10:34.006Z,100368.97
2023-03-26T19:13:03.230Z,100373.69
2023-03-26T19:15:31.943Z,100375.72
2023-03-26T19:18:07.316Z,100380.66
2023-03-26T19:20:41.388Z,100382.63
2023-03-26T19:23:13.812Z,100381.09
2023-03-26T19:25:43.556Z,100383.06
2023-03-26T19:28:20.814Z,100390.28
2023-03-26T19:30:53.516Z,100385.16
2023-03-26T19:33:23.381Z,100397.16
2023-03-26T19:35:54.969Z,100393.78
2023-03-26T19:38:25.807Z,100402.06
2023-03-26T19:40:56.057Z,100402.22
2023-03-26T19:43:24.862Z,100406.75
2023-03-26T19:46:00.601Z,100406.31
2023-03-26T19:48:45.929Z,100395.78
2023-03-26T19:51:21.013Z,100408.53
2023-03-26T19:53:54.267Z,100417.56
2023-03-26T19:56:23.202Z,100411.56
2023-03-26T19:58:51.966Z,100405.56
2023-03-26T20:01:22.142Z,100419.19
2023-03-26T20:03:54.265Z,100420.25
2023-03-26T20:09:12.596Z,100430.56
2023-03-26T20:11:41.311Z,100429.75
2023-03-26T20:14:13.916Z,100425.47
2023-03-26T20:16:43.803Z,100429.31
2023-03-26T20:19:15.400Z,100425.81
2023-03-26T20:21:44.436Z,100433.00
2023-03-26T20:24:15.022Z,100435.81
2023-03-26T20:26:43.212Z,100436.84
2023-03-26T20:29:11.704Z,100442.31
2023-03-26T20:31:41.463Z,100449.63
2023-03-26T20:34:16.438Z,100451.44
2023-03-26T20:36:45.499Z,100458.63
2023-03-26T20:39:13.836Z,100457.03
2023-03-26T20:41:45.993Z,100460.72
2023-03-26T20:44:15.780Z,100461.69
2023-03-26T20:46:44.754Z,100454.63
2023-03-26T20:49:15.056Z,100455.81
2023-03-26T20:51:45.352Z,100470.19
2023-03-26T20:54:17.634Z,100474.88
2023-03-26T20:56:47.772Z,100469.66
2023-03-26T20:59:22.409Z,100482.19
2023-03-26T21:01:51.385Z,100480.63
2023-03-26T21:04:20.155Z,100487.81
2023-03-26T21:06:50.736Z,100487.09
2023-03-26T21:09:23.661Z,100494.31
2023-03-26T21:11:57.881Z,100494.66
2023-03-26T21:14:27.172Z,100492.13
2023-03-26T21:16:55.930Z,100502.00
2023-03-26T21:19:24.513Z,100499.53
2023-03-26T21:22:09.667Z,100516.50
2023-03-26T21:24:58.285Z,100508.59
2023-03-26T21:27:30.238Z,100513.19
2023-03-26T21:30:00.018Z,100516.84
2023-03-26T21:32:28.938Z,100521.38
2023-03-26T21:34:59.520Z,100525.91
2023-03-26T21:37:29.830Z,100518.94
2023-03-26T21:39:59.924Z,100520.78
2023-03-26T21:42:29.410Z,100526.25
2023-03-26T21:44:58.086Z,100532.56
2023-03-26T21:47:27.033Z,100530.78
2023-03-26T21:49:55.831Z,100530.06
2023-03-26T21:52:25.250Z,100541.69
2023-03-26T21:54:58.036Z,100544.41
2023-03-26T21:57:37.799Z,100538.28
2023-03-26T22:00:15.185Z,100543.66
2023-03-26T22:02:55.584Z,100551.78
2023-03-26T22:05:30.440Z,100545.59
2023-03-26T22:08:02.929Z,100550.19
2023-03-26T22:10:32.891Z,100551.06
2023-03-26T22:13:01.134Z,100560.97
2023-03-26T22:15:30.774Z,100555.75
2023-03-26T22:18:02.122Z,100563.75
2023-03-26T22:20:30.295Z,100565.56
2023-03-26T22:22:58.949Z,100566.50
2023-03-26T22:25:27.639Z,100563.94
2023-03-26T22:27:57.507Z,100571.13
2023-03-26T22:30:25.700Z,100573.84
2023-03-26T22:32:53.843Z,100577.50
2023-03-26T22:35:21.992Z,100582.00
2023-03-26T22:37:50.447Z,100583.88
2023-03-26T22:40:18.715Z,100576.94
2023-03-26T22:42:46.905Z,100584.06
2023-03-26T22:45:17.231Z,100582.22
2023-03-26T22:47:45.453Z,100591.19
2023-03-26T22:50:13.733Z,100596.56
2023-03-26T22:52:41.931Z,100593.97
2023-03-26T22:55:11.098Z,100596.69
2023-03-26T22:57:39.396Z,100599.47
2023-03-26T23:00:16.093Z,100592.47
2023-03-26T23:02:47.539Z,100595.06
2023-03-26T23:05:17.384Z,100597.72
2023-03-26T23:07:45.985Z,100595.00
2023-03-26T23:10:14.429Z,100600.44
2023-03-26T23:12:42.586Z,100612.03
2023-03-26T23:15:11.509Z,100609.41
2023-03-26T23:17:40.312Z,100618.25
2023-03-26T23:20:14.982Z,100619.19
2023-03-26T23:22:43.911Z,100629.84
2023-03-26T23:25:12.724Z,100625.44
2023-03-26T23:27:41.470Z,100630.78
2023-03-26T23:30:11.830Z,100629.09
2023-03-26T23:32:41.042Z,100638.97
2023-03-26T23:35:11.417Z,100641.69
2023-03-26T23:37:42.528Z,100646.28
2023-03-26T23:40:12.461Z,100644.53
2023-03-26T23:42:40.760Z,100651.72
2023-03-26T23:45:09.619Z,100645.53
2023-03-26T23:47:42.252Z,100654.31
2023-03-26T23:50:12.954Z,100652.53
2023-03-26T23:52:41.283Z,100651.59
2023-03-26T23:55:10.019Z,100660.31
2023-03-26T23:57:38.205Z,100669.03
